createdAt,value
2023-03-26T00:02:23.504Z,5.63
2023-03-26T00:04:51.208Z,4.97
2023-03-26T00:07:17.915Z,5.07
2023-03-26T00:09:44.402Z,4.57
2023-03-26T00:12:11.348Z,4.90
2023-03-26T00:14:38.618Z,5.00
2023-03-26T00:17:05.434Z,4.53
2023-03-26T00:19:32.382Z,3.93
2023-03-26T00:21:58.969Z,4.07
2023-03-26T00:24:29.673Z,4.10
2023-03-26T00:26:56.194Z,2.77
2023-03-26T00:29:28.025Z,2.90
2023-03-26T00:31:54.758Z,2.90
2023-03-26T00:34:23.037Z,3.03
2023-03-26T00:36:54.373Z,2.27
2023-03-26T00:39:21.893Z,2.20
2023-03-26T00:41:48.486Z,2.00
2023-03-26T00:44:15.005Z,2.13
2023-03-26T00:46:42.776Z,1.80
2023-03-26T00:49:11.085Z,1.60
2023-03-26T00:51:39.379Z,1.37
2023-03-26T00:54:07.816Z,1.30
2023-03-26T00:56:34.859Z,1.20
2023-03-26T00:59:01.460Z,1.60
2023-03-26T01:01:29.117Z,1.50
2023-03-26T01:04:08.249Z,1.23
2023-03-26T01:06:37.333Z,1.30
2023-03-26T01:09:14.757Z,1.10
2023-03-26T01:11:41.524Z,1.40
2023-03-26T01:14:12.829Z,1.30
2023-03-26T01:16:41.713Z,1.40
2023-03-26T01:19:13.045Z,1.30
2023-03-26T01:21:39.866Z,1.30
2023-03-26T01:24:07.934Z,1.13
2023-03-26T01:26:40.711Z,1.20
2023-03-26T01:29:08.796Z,1.20
2023-03-26T01:31:39.706Z,1.50
2023-03-26T01:34:16.345Z,1.43
2023-03-26T01:36:47.931Z,1.63
2023-03-26T01:39:25.357Z,2.07
2023-03-26T01:41:54.719Z,1.83
2023-03-26T01:44:24.213Z,1.87
2023-03-26T01:46:52.722Z,2.13
2023-03-26T01:49:19.977Z,1.70
2023-03-26T01:51:47.707Z,1.33
2023-03-26T01:54:18.348Z,1.80
2023-03-26T01:56:50.871Z,2.40
2023-03-26T01:59:27.228Z,1.90
2023-03-26T02:02:01.314Z,2.00
2023-03-26T02:04:40.560Z,1.90
2023-03-26T02:07:09.467Z,2.20
2023-03-26T02:09:40.747Z,1.97
2023-03-26T02:12:08.261Z,2.13
2023-03-26T02:14:35.921Z,2.07
2023-03-26T02:17:02.597Z,2.00
2023-03-26T02:19:29.926Z,2.20
2023-03-26T02:21:59.872Z,2.23
2023-03-26T02:24:26.726Z,2.20
2023-03-26T02:26:53.280Z,2.10
2023-03-26T02:29:20.633Z,2.47
2023-03-26T02:31:50.779Z,2.47
2023-03-26T02:34:17.449Z,2.40
2023-03-26T02:36:44.130Z,1.70
2023-03-26T02:39:11.274Z,1.77
2023-03-26T02:41:38.212Z,1.90
2023-03-26T02:44:05.813Z,1.60
2023-03-26T02:46:32.984Z,1.83
2023-03-26T02:48:59.524Z,2.37
2023-03-26T02:51:27.344Z,2.47
2023-03-26T02:53:54.839Z,1.97
2023-03-26T02:56:21.733Z,1.93
2023-03-26T02:58:48.435Z,2.23
2023-03-26T03:01:18.354Z,2.03
2023-03-26T03:03:47.307Z,2.13
2023-03-26T03:06:20.110Z,2.13
2023-03-26T03:08:46.668Z,2.07
2023-03-26T03:11:14.983Z,2.60
2023-03-26T03:13:41.605Z,2.53
2023-03-26T03:16:08.458Z,2.73
2023-03-26T03:18:35.713Z,2.40
2023-03-26T03:21:03.062Z,2.40
2023-03-26T03:23:29.611Z,2.70
2023-03-26T03:25:57.514Z,2.30
2023-03-26T03:28:24.643Z,2.70
2023-03-26T03:30:54.127Z,2.63
2023-03-26T03:33:21.467Z,2.50
2023-03-26T03:35:49.656Z,3.07
2023-03-26T03:38:19.350Z,2.50
2023-03-26T03:40:46.192Z,2.77
2023-03-26T03:43:12.690Z,2.30
2023-03-26T03:45:39.311Z,2.50
2023-03-26T03:48:06.881Z,2.40
2023-03-26T03:50:35.646Z,2.90
2023-03-26T03:53:02.997Z,2.87
2023-03-26T03:55:30.078Z,3.07
2023-03-26T03:57:58.394Z,3.10
2023-03-26T04:00:25.466Z,3.90
2023-03-26T04:02:54.607Z,3.40
2023-03-26T04:05:21.575Z,3.13
2023-03-26T04:07:48.237Z,4.30
2023-03-26T04:10:16.097Z,4.40
2023-03-26T04:12:42.774Z,3.77
2023-03-26T04:15:10.214Z,4.90
2023-03-26T04:17:56.716Z,4.67
2023-03-26T04:20:47.268Z,4.67
2023-03-26T04:23:32.502Z,4.70
2023-03-26T04:26:04.248Z,5.10
2023-03-26T04:28:48.938Z,4.83
2023-03-26T04:31:24.430Z,5.00
2023-03-26T04:33:55.369Z,4.90
2023-03-26T04:36:29.177Z,5.40
2023-03-26T04:38:56.001Z,5.97
2023-03-26T04:41:22.601Z,4.63
2023-03-26T04:43:50.792Z,4.80
2023-03-26T04:46:23.598Z,4.73
2023-03-26T04:48:51.096Z,5.00
2023-03-26T04:51:18.664Z,5.47
2023-03-26T04:53:51.702Z,5.13
2023-03-26T04:56:31.459Z,6.10
2023-03-26T04:58:59.906Z,4.87
2023-03-26T05:01:28.436Z,5.03
2023-03-26T05:03:55.757Z,5.33
2023-03-26T05:06:22.412Z,4.80
2023-03-26T05:08:49.093Z,5.70
2023-03-26T05:11:15.864Z,4.63
2023-03-26T05:13:42.974Z,4.97
2023-03-26T05:16:10.639Z,4.70
2023-03-26T05:18:37.136Z,4.50
2023-03-26T05:21:03.741Z,4.87
2023-03-26T05:23:30.664Z,5.23
2023-03-26T05:25:57.239Z,5.07
2023-03-26T05:28:25.519Z,5.10
2023-03-26T05:30:53.418Z,4.87
2023-03-26T05:33:20.843Z,4.97
2023-03-26T05:35:49.480Z,4.33
2023-03-26T05:38:16.130Z,4.47
2023-03-26T05:40:43.004Z,4.77
2023-03-26T05:43:09.720Z,4.20
2023-03-26T05:45:36.298Z,5.00
2023-03-26T05:48:02.949Z,5.00
2023-03-26T05:50:29.574Z,4.80
2023-03-26T05:52:56.071Z,4.10
2023-03-26T05:55:22.594Z,4.87
2023-03-26T05:57:49.182Z,4.70
2023-03-26T06:00:16.508Z,4.23
2023-03-26T06:02:43.058Z,4.67
2023-03-26T06:05:09.980Z,4.27
2023-03-26T06:07:36.698Z,3.93
2023-03-26T06:10:03.562Z,4.30
2023-03-26T06:12:30.225Z,3.70
2023-03-26T06:14:56.772Z,3.73
2023-03-26T06:17:23.711Z,4.40
2023-03-26T06:19:50.337Z,3.53
2023-03-26T06:22:16.950Z,4.17
2023-03-26T06:24:43.514Z,3.63
2023-03-26T06:27:10.068Z,4.10
2023-03-26T06:29:36.757Z,3.17
2023-03-26T06:32:16.204Z,3.53
2023-03-26T06:34:45.302Z,4.30
2023-03-26T06:37:11.850Z,3.80
2023-03-26T06:39:38.395Z,4.33
2023-03-26T06:42:05.050Z,4.00
2023-03-26T06:44:31.761Z,3.73
2023-03-26T06:46:58.364Z,3.67
2023-03-26T06:49:24.908Z,4.50
2023-03-26T06:51:51.413Z,4.07
2023-03-26T06:54:17.966Z,3.37
2023-03-26T06:56:45.112Z,3.70
2023-03-26T06:59:12.206Z,3.47
2023-03-26T07:01:39.349Z,3.50
2023-03-26T07:04:06.161Z,3.53
2023-03-26T07:06:32.963Z,3.40
2023-03-26T07:08:59.526Z,3.50
2023-03-26T07:11:27.081Z,4.03
2023-03-26T07:13:56.315Z,3.63
2023-03-26T07:16:23.067Z,3.33
2023-03-26T07:18:49.718Z,3.20
2023-03-26T07:21:16.392Z,2.90
2023-03-26T07:23:43.047Z,4.47
2023-03-26T07:26:18.628Z,3.33
2023-03-26T07:29:04.455Z,3.13
2023-03-26T07:31:34.769Z,3.10
2023-03-26T07:34:10.430Z,3.00
2023-03-26T07:36:37.287Z,2.80
2023-03-26T07:39:09.838Z,3.50
2023-03-26T07:41:46.478Z,2.90
2023-03-26T07:44:13.164Z,2.87
2023-03-26T07:46:41.543Z,3.40
2023-03-26T07:49:12.287Z,2.60
2023-03-26T07:51:39.113Z,2.67
2023-03-26T07:54:06.828Z,2.97
2023-03-26T07:56:36.269Z,2.97
2023-03-26T07:59:05.870Z,3.10
2023-03-26T08:01:38.624Z,3.00
2023-03-26T08:04:24.575Z,3.23
2023-03-26T08:06:56.398Z,2.93
2023-03-26T08:09:46.377Z,3.27
2023-03-26T08:12:19.107Z,2.90
2023-03-26T08:15:11.221Z,2.63
2023-03-26T08:17:45.149Z,3.00
2023-03-26T08:20:12.018Z,2.60
2023-03-26T08:22:41.117Z,2.77
2023-03-26T08:25:19.732Z,2.90
2023-03-26T08:27:54.780Z,3.70
2023-03-26T08:30:23.063Z,3.10
2023-03-26T08:33:00.368Z,3.57
2023-03-26T08:35:27.641Z,3.40
2023-03-26T08:37:54.377Z,3.60
2023-03-26T08:40:27.686Z,3.50
2023-03-26T08:43:20.959Z,3.67
2023-03-26T08:46:15.991Z,3.27
2023-03-26T08:48:48.902Z,3.57
2023-03-26T08:51:30.852Z,2.90
2023-03-26T08:54:16.406Z,3.40
2023-03-26T08:57:01.919Z,3.40
2023-03-26T08:59:42.020Z,3.50
2023-03-26T09:02:08.923Z,3.40
2023-03-26T09:04:39.610Z,2.97
2023-03-26T09:07:10.109Z,3.17
2023-03-26T09:09:42.833Z,2.57
2023-03-26T09:12:28.396Z,2.33
2023-03-26T09:15:07.338Z,2.60
2023-03-26T09:17:52.820Z,2.23
2023-03-26T09:20:38.355Z,2.77
2023-03-26T09:23:23.833Z,2.30
2023-03-26T09:25:56.866Z,2.27
2023-03-26T09:28:50.630Z,2.47
2023-03-26T09:31:26.486Z,2.27
2023-03-26T09:34:00.457Z,2.10
2023-03-26T09:36:33.059Z,2.47
2023-03-26T09:39:00.581Z,2.40
2023-03-26T09:41:39.609Z,2.10
2023-03-26T09:44:09.288Z,1.90
2023-03-26T09:46:46.548Z,2.30
2023-03-26T09:49:17.403Z,2.13
2023-03-26T09:51:50.358Z,2.10
2023-03-26T09:54:51.786Z,1.70
2023-03-26T09:57:51.254Z,2.00
2023-03-26T10:00:47.244Z,1.70
2023-03-26T10:03:30.497Z,2.10
2023-03-26T10:06:12.591Z,1.73
2023-03-26T10:08:47.606Z,1.77
2023-03-26T10:11:33.680Z,1.90
2023-03-26T10:14:04.298Z,2.07
2023-03-26T10:16:34.308Z,2.30
2023-03-26T10:19:20.055Z,2.60
2023-03-26T10:22:05.497Z,2.40
2023-03-26T10:24:50.324Z,2.30
2023-03-26T10:27:36.028Z,2.47
2023-03-26T10:30:02.546Z,1.90
2023-03-26T10:32:29.513Z,2.30
2023-03-26T10:35:19.474Z,2.27
2023-03-26T10:37:46.078Z,2.40
2023-03-26T10:40:27.949Z,3.00
2023-03-26T10:43:13.290Z,2.27
2023-03-26T10:45:58.513Z,2.20
2023-03-26T10:48:44.033Z,2.10
2023-03-26T10:51:16.580Z,2.20
2023-03-26T10:53:47.183Z,2.10
2023-03-26T10:56:23.025Z,2.50
2023-03-26T10:58:50.367Z,2.53
2023-03-26T11:01:37.558Z,2.20
2023-03-26T11:04:15.676Z,2.60
2023-03-26T11:06:47.622Z,2.60
2023-03-26T11:09:33.192Z,2.30
2023-03-26T11:12:25.463Z,2.13
2023-03-26T11:15:01.343Z,2.50
2023-03-26T11:17:39.684Z,2.50
2023-03-26T11:20:15.512Z,3.30
2023-03-26T11:23:00.918Z,3.23
2023-03-26T11:25:27.499Z,2.90
2023-03-26T11:28:00.357Z,2.70
2023-03-26T11:30:37.879Z,3.80
2023-03-26T11:33:06.750Z,2.63
2023-03-26T11:35:41.042Z,3.00
2023-03-26T11:38:16.181Z,2.80
2023-03-26T11:40:45.292Z,2.50
2023-03-26T11:43:13.508Z,2.87
2023-03-26T11:45:42.394Z,2.47
2023-03-26T11:48:28.821Z,2.73
2023-03-26T11:50:57.668Z,3.00
2023-03-26T11:53:27.717Z,2.97
2023-03-26T11:55:59.582Z,3.20
2023-03-26T11:58:31.460Z,3.17
2023-03-26T12:00:59.132Z,3.47
2023-03-26T12:03:25.882Z,3.30
2023-03-26T12:05:57.941Z,3.33
2023-03-26T12:08:31.176Z,3.73
2023-03-26T12:11:04.398Z,3.90
2023-03-26T12:13:36.538Z,3.90
2023-03-26T12:16:14.194Z,4.20
2023-03-26T12:18:41.782Z,3.87
2023-03-26T12:21:13.136Z,4.77
2023-03-26T12:23:42.694Z,4.07
2023-03-26T12:26:17.506Z,4.10
2023-03-26T12:28:45.293Z,4.17
2023-03-26T12:31:18.157Z,4.00
2023-03-26T12:33:46.145Z,3.60
2023-03-26T12:36:17.533Z,4.17
2023-03-26T12:38:46.038Z,4.07
2023-03-26T12:43:40.652Z,4.17
2023-03-26T12:44:50.126Z,4.37
2023-03-26T12:47:58.656Z,4.47
2023-03-26T12:50:02.298Z,4.50
2023-03-26T12:52:38.483Z,4.20
2023-03-26T12:55:14.748Z,4.13
2023-03-26T12:58:13.637Z,4.63
2023-03-26T13:00:43.794Z,4.67
2023-03-26T13:03:41.990Z,5.00
2023-03-26T13:06:20.606Z,4.63
2023-03-26T13:09:01.233Z,5.43
2023-03-26T13:11:57.270Z,6.40
2023-03-26T13:14:32.205Z,6.40
2023-03-26T13:17:12.831Z,6.67
2023-03-26T13:19:45.529Z,5.70
2023-03-26T13:22:12.557Z,5.53
2023-03-26T13:24:48.935Z,5.60
2023-03-26T13:27:18.651Z,5.60
2023-03-26T13:29:59.810Z,5.30
2023-03-26T13:32:37.143Z,4.93
2023-03-26T13:35:07.199Z,5.40
2023-03-26T13:37:44.153Z,4.90
2023-03-26T13:40:13.807Z,5.03
2023-03-26T13:42:43.686Z,4.40
2023-03-26T13:45:30.668Z,4.73
2023-03-26T13:47:58.567Z,4.33
2023-03-26T13:50:26.902Z,4.27
2023-03-26T13:52:56.136Z,4.20
2023-03-26T13:55:29.527Z,4.33
2023-03-26T13:58:05.263Z,4.40
2023-03-26T14:00:55.014Z,4.50
2023-03-26T14:03:31.909Z,4.20
2023-03-26T14:06:00.960Z,4.03
2023-03-26T14:08:27.733Z,4.53
2023-03-26T14:11:08.080Z,4.20
2023-03-26T14:13:47.437Z,3.60
2023-03-26T14:16:17.054Z,4.10
2023-03-26T14:18:54.711Z,3.93
2023-03-26T14:21:34.305Z,4.00
2023-03-26T14:24:27.819Z,3.93
2023-03-26T14:27:03.016Z,3.90
2023-03-26T14:29:32.826Z,4.13
2023-03-26T14:32:24.537Z,3.17
2023-03-26T14:35:04.875Z,3.50
2023-03-26T14:37:46.873Z,3.67
2023-03-26T14:40:15.062Z,3.90
2023-03-26T14:42:56.395Z,3.53
2023-03-26T14:45:35.040Z,3.03
2023-03-26T14:48:17.071Z,3.23
2023-03-26T14:50:58.906Z,3.37
2023-03-26T14:53:25.907Z,2.50
2023-03-26T14:56:12.078Z,2.93
2023-03-26T14:58:55.188Z,2.33
2023-03-26T15:01:28.157Z,2.83
2023-03-26T15:04:01.038Z,2.60
2023-03-26T15:06:47.973Z,3.10
2023-03-26T15:09:26.857Z,2.63
2023-03-26T15:12:13.587Z,2.20
2023-03-26T15:14:59.221Z,2.50
2023-03-26T15:17:31.933Z,2.77
2023-03-26T15:20:10.846Z,3.40
2023-03-26T15:22:56.466Z,3.27
2023-03-26T15:25:29.058Z,3.67
2023-03-26T15:28:08.418Z,3.23
2023-03-26T15:30:53.867Z,3.20
2023-03-26T15:33:43.922Z,4.43
2023-03-26T15:36:21.509Z,3.63
2023-03-26T15:38:48.818Z,4.50
2023-03-26T15:41:42.440Z,4.27
2023-03-26T15:44:24.649Z,3.47
2023-03-26T15:46:56.364Z,3.67
2023-03-26T15:49:36.317Z,3.80
2023-03-26T15:52:22.134Z,3.73
2023-03-26T15:55:04.368Z,3.80
2023-03-26T15:57:39.271Z,3.60
2023-03-26T16:00:16.380Z,4.53
2023-03-26T16:02:42.974Z,3.07
2023-03-26T16:05:37.308Z,3.40
2023-03-26T16:08:07.187Z,3.03
2023-03-26T16:10:40.914Z,3.23
2023-03-26T16:13:17.381Z,3.37
2023-03-26T16:15:51.727Z,3.30
2023-03-26T16:18:22.546Z,3.03
2023-03-26T16:20:57.274Z,3.00
2023-03-26T16:23:30.296Z,2.90
2023-03-26T16:25:58.868Z,2.93
2023-03-26T16:28:33.710Z,3.03
2023-03-26T16:31:36.853Z,2.50
2023-03-26T16:34:05.415Z,2.30
2023-03-26T16:36:41.990Z,3.00
2023-03-26T16:39:08.873Z,2.20
2023-03-26T16:41:50.302Z,3.20
2023-03-26T16:44:41.243Z,2.37
2023-03-26T16:47:15.119Z,3.27
2023-03-26T16:49:48.132Z,2.10
2023-03-26T16:52:42.815Z,2.60
2023-03-26T16:55:17.897Z,2.33
2023-03-26T16:57:52.957Z,2.63
2023-03-26T17:00:27.743Z,2.77
2023-03-26T17:03:15.161Z,3.27
2023-03-26T17:05:54.213Z,2.80
2023-03-26T17:08:35.928Z,2.63
2023-03-26T17:11:21.233Z,3.00
2023-03-26T17:14:03.706Z,2.50
2023-03-26T17:16:30.421Z,3.27
2023-03-26T17:18:57.026Z,2.57
2023-03-26T17:21:46.318Z,2.83
2023-03-26T17:24:26.693Z,2.87
2023-03-26T17:27:16.789Z,2.80
2023-03-26T17:30:05.783Z,3.03
2023-03-26T17:32:51.251Z,2.33
2023-03-26T17:35:17.962Z,2.50
2023-03-26T17:37:47.768Z,3.03
2023-03-26T17:40:43.505Z,2.80
2023-03-26T17:43:11.608Z,2.40
2023-03-26T17:45:42.111Z,2.83
2023-03-26T17:48:12.981Z,3.00
2023-03-26T17:50:44.190Z,3.40
2023-03-26T17:53:19.711Z,2.73
2023-03-26T17:55:46.943Z,2.83
2023-03-26T17:58:25.392Z,3.13
2023-03-26T18:01:12.607Z,2.67
2023-03-26T18:03:44.447Z,3.63
2023-03-26T18:06:14.039Z,3.00
2023-03-26T18:08:43.103Z,3.10
2023-03-26T18:11:20.624Z,2.50
2023-03-26T18:13:58.031Z,2.80
2023-03-26T18:16:36.689Z,2.97
2023-03-26T18:19:15.109Z,3.03
2023-03-26T18:21:43.209Z,3.27
2023-03-26T18:24:28.633Z,2.87
2023-03-26T18:27:01.401Z,2.50
2023-03-26T18:29:31.652Z,2.50
2023-03-26T18:32:03.540Z,3.30
2023-03-26T18:34:32.136Z,3.10
2023-03-26T18:37:08.585Z,2.77
2023-03-26T18:39:35.345Z,2.47
2023-03-26T18:42:01.979Z,3.47
2023-03-26T18:44:28.876Z,2.97
2023-03-26T18:46:55.813Z,2.87
2023-03-26T18:49:24.034Z,2.13
2023-03-26T18:51:57.205Z,2.70
2023-03-26T18:54:25.126Z,3.37
2023-03-26T18:56:52.645Z,2.83
2023-03-26T18:59:28.263Z,2.53
2023-03-26T19:01:57.326Z,2.47
2023-03-26T19:04:25.802Z,2.37
2023-03-26T19:06:55.234Z,2.33
2023-03-26T19:09:31.675Z,2.70
2023-03-26T19:12:03.915Z,2.40
2023-03-26T19:14:35.367Z,2.70
2023-03-26T19:17:03.558Z,2.30
2023-03-26T19:19:32.582Z,2.60
2023-03-26T19:21:59.781Z,2.13
2023-03-26T19:24:27.068Z,3.43
2023-03-26T19:26:53.696Z,3.30
2023-03-26T19:29:24.534Z,2.47
2023-03-26T19:31:55.753Z,2.27
2023-03-26T19:34:31.667Z,2.50
2023-03-26T19:37:03.253Z,1.80
2023-03-26T19:39:37.658Z,2.83
2023-03-26T19:42:05.305Z,2.67
2023-03-26T19:44:32.073Z,1.87
2023-03-26T19:47:03.378Z,2.67
2023-03-26T19:49:32.179Z,2.53
2023-03-26T19:52:11.398Z,2.63
2023-03-26T19:54:59.762Z,2.27
2023-03-26T19:57:31.618Z,2.40
2023-03-26T19:59:58.648Z,2.57
2023-03-26T20:02:26.175Z,1.73
2023-03-26T20:04:53.070Z,1.97
2023-03-26T20:07:22.297Z,2.10
2023-03-26T20:10:03.086Z,2.23
2023-03-26T20:12:29.980Z,2.07
2023-03-26T20:14:56.880Z,2.33
2023-03-26T20:17:23.538Z,2.00
2023-03-26T20:19:50.107Z,2.27
2023-03-26T20:22:17.687Z,2.43
2023-03-26T20:24:47.211Z,2.03
2023-03-26T20:27:16.613Z,2.30
2023-03-26T20:29:43.279Z,2.10
2023-03-26T20:32:23.692Z,2.50
2023-03-26T20:34:51.578Z,2.27
2023-03-26T20:37:18.371Z,2.30
2023-03-26T20:39:45.780Z,2.27
2023-03-26T20:42:15.428Z,1.77
2023-03-26T20:44:42.745Z,2.67
2023-03-26T20:47:12.880Z,1.70
2023-03-26T20:49:40.348Z,2.30
2023-03-26T20:52:06.932Z,2.40
2023-03-26T20:54:33.513Z,2.33
2023-03-26T20:57:00.316Z,2.03
2023-03-26T20:59:27.843Z,2.10
2023-03-26T21:01:57.154Z,2.50
2023-03-26T21:04:25.019Z,2.47
2023-03-26T21:06:53.305Z,2.13
2023-03-26T21:09:25.370Z,2.30
2023-03-26T21:11:59.345Z,2.13
2023-03-26T21:14:28.330Z,2.10
2023-03-26T21:16:55.238Z,2.00
2023-03-26T21:19:21.972Z,2.50
2023-03-26T21:21:52.595Z,2.30
2023-03-26T21:24:19.325Z,2.23
2023-03-26T21:26:52.245Z,2.00
2023-03-26T21:29:19.011Z,2.00
2023-03-26T21:31:46.762Z,2.50
2023-03-26T21:34:14.046Z,2.23
2023-03-26T21:36:40.825Z,2.27
2023-03-26T21:39:07.643Z,2.30
2023-03-26T21:42:04.753Z,2.17
2023-03-26T21:44:33.026Z,2.20
2023-03-26T21:46:59.720Z,1.90
2023-03-26T21:49:26.496Z,1.90
2023-03-26T21:51:53.130Z,2.67
2023-03-26T21:54:29.773Z,1.80
2023-03-26T21:57:05.959Z,2.20
2023-03-26T21:59:41.696Z,2.13
2023-03-26T22:02:17.349Z,2.20
2023-03-26T22:04:46.869Z,2.40
2023-03-26T22:07:13.857Z,2.43
2023-03-26T22:09:40.841Z,2.10
2023-03-26T22:12:07.517Z,2.17
2023-03-26T22:14:34.489Z,2.00
2023-03-26T22:17:01.050Z,2.40
2023-03-26T22:19:29.152Z,2.43
2023-03-26T22:21:58.340Z,2.30
2023-03-26T22:24:24.834Z,2.13
2023-03-26T22:26:51.595Z,2.47
2023-03-26T22:29:18.135Z,2.90
2023-03-26T22:31:45.121Z,2.40
2023-03-26T22:34:11.785Z,2.37
2023-03-26T22:36:40.309Z,2.00
2023-03-26T22:39:07.248Z,2.03
2023-03-26T22:41:33.740Z,2.30
2023-03-26T22:44:09.348Z,2.40
2023-03-26T22:46:47.410Z,1.80
2023-03-26T22:49:13.942Z,2.87
2023-03-26T22:51:40.500Z,2.10
2023-03-26T22:54:07.651Z,2.53
2023-03-26T22:56:34.224Z,2.53
2023-03-26T22:59:00.738Z,2.00
2023-03-26T23:01:27.554Z,2.60
2023-03-26T23:03:54.649Z,1.80
2023-03-26T23:06:21.709Z,2.43
2023-03-26T23:08:48.313Z,2.80
2023-03-26T23:11:16.912Z,2.80
2023-03-26T23:13:43.834Z,1.77
2023-03-26T23:16:11.444Z,1.97
2023-03-26T23:18:38.766Z,2.83
2023-03-26T23:21:11.919Z,3.10
2023-03-26T23:23:39.755Z,2.60
2023-03-26T23:26:07.002Z,2.30
2023-03-26T23:28:34.277Z,2.13
2023-03-26T23:31:02.375Z,2.00
2023-03-26T23:33:31.306Z,2.03
2023-03-26T23:35:59.878Z,2.27
2023-03-26T23:38:29.039Z,2.00
2023-03-26T23:41:14.994Z,2.30
2023-03-26T23:43:53.981Z,2.00
2023-03-26T23:46:23.601Z,2.37
2023-03-26T23:48:55.015Z,2.70
2023-03-26T23:51:21.868Z,2.00
2023-03-26T23:53:49.297Z,2.03
2023-03-26T23:56:16.433Z,2.77
2023-03-26T23:58:43.071Z,2.10
